South Lincoln, Vermont
Current Conditions -  °F | °C
As of 9:15 AM on Monday 20 Oct 2014 (Local Time) from K6B0 Reporting Station
Scattered Clouds Scattered Clouds  
Wind Chill: 35°   Ceiling: Unl
Heat Index: 38°   Visibility: 10mi
Dew Point: 31°   Wind: 5mph
Humidity: 73%   Direction: 180°S
Pressure: 30.02"   Gusts: NA
Location:  44.1404°N, 73.0493°W
Report Text: K6B0 201315Z AUTO 18004KT 10SM SCT110 04/M01 A3002 RMK AO2 T00361008
Loading
Personal Weather Stations






























Interactive Weather Map
Tropical Storm Tracking
New forecast layout! Learn more

10-Day Weather Forecast

Advertisements
Track Severe Weather on mobile